createdAt,value
2019-02-01T00:06:08.071Z,-2.20
2019-02-01T00:08:37.396Z,-2.20
2019-02-01T00:11:06.786Z,-2.20
2019-02-01T00:13:36.126Z,-2.20
2019-02-01T00:16:08.520Z,-2.20
2019-02-01T00:18:38.257Z,-2.30
2019-02-01T00:21:07.552Z,-2.30
2019-02-01T00:23:37.471Z,-2.30
2019-02-01T00:26:06.850Z,-2.30
2019-02-01T00:28:36.180Z,-2.20
2019-02-01T00:31:06.162Z,-2.20
2019-02-01T00:33:35.512Z,-2.20
2019-02-01T00:36:04.812Z,-2.20
2019-02-01T00:38:34.116Z,-2.20
2019-02-01T00:41:03.451Z,-2.20
2019-02-01T00:43:32.793Z,-2.20
2019-02-01T00:46:02.090Z,-2.20
2019-02-01T00:48:31.401Z,-2.20
2019-02-01T00:51:00.860Z,-2.20
2019-02-01T00:53:30.696Z,-2.20
2019-02-01T00:56:00.024Z,-2.30
2019-02-01T00:58:29.316Z,-2.30
2019-02-01T01:00:59.165Z,-2.30
2019-02-01T01:03:28.864Z,-2.40
2019-02-01T01:05:58.146Z,-2.40
2019-02-01T01:08:27.539Z,-2.40
2019-02-01T01:10:56.833Z,-2.30
2019-02-01T01:13:26.234Z,-2.30
2019-02-01T01:15:55.532Z,-2.30
2019-02-01T01:18:24.820Z,-2.40
2019-02-01T01:20:54.144Z,-2.40
2019-02-01T01:23:23.429Z,-2.40
2019-02-01T01:25:53.368Z,-2.40
2019-02-01T01:28:23.164Z,-2.30
2019-02-01T01:30:52.493Z,-2.30
2019-02-01T01:33:21.785Z,-2.30
2019-02-01T01:35:51.068Z,-2.30
2019-02-01T01:38:20.396Z,-2.30
2019-02-01T01:40:49.724Z,-2.30
2019-02-01T01:43:19.462Z,-2.30
2019-02-01T01:45:48.744Z,-2.30
2019-02-01T01:48:18.592Z,-2.40
2019-02-01T01:50:47.886Z,-2.40
2019-02-01T01:53:17.206Z,-2.40
2019-02-01T01:55:46.571Z,-2.30
2019-02-01T01:58:15.904Z,-2.30
2019-02-01T02:00:45.688Z,-2.30
2019-02-01T02:03:15.024Z,-2.30
2019-02-01T02:05:44.426Z,-2.30
2019-02-01T02:08:13.731Z,-2.30
2019-02-01T02:10:43.465Z,-2.30
2019-02-01T02:13:12.752Z,-2.30
2019-02-01T02:15:42.080Z,-2.40
2019-02-01T02:18:12.308Z,-2.30
2019-02-01T02:20:41.644Z,-2.30
2019-02-01T02:23:10.932Z,-2.40
2019-02-01T02:25:40.269Z,-2.30
2019-02-01T02:28:09.566Z,-2.40
2019-02-01T02:30:38.887Z,-2.40
2019-02-01T02:33:08.189Z,-2.40
2019-02-01T02:35:37.693Z,-2.40
2019-02-01T02:38:07.064Z,-2.30
2019-02-01T02:40:36.356Z,-2.30
2019-02-01T02:43:05.704Z,-2.30
2019-02-01T02:45:34.997Z,-2.30
2019-02-01T02:48:04.273Z,-2.30
2019-02-01T02:50:33.634Z,-2.30
2019-02-01T02:53:02.931Z,-2.30
2019-02-01T02:55:32.262Z,-2.40
2019-02-01T02:58:01.551Z,-2.40
2019-02-01T03:00:32.303Z,-2.40
2019-02-01T03:03:02.017Z,-2.40
2019-02-01T03:05:32.090Z,-2.40
2019-02-01T03:08:01.397Z,-2.40
2019-02-01T03:10:31.160Z,-2.60
2019-02-01T03:13:00.494Z,-2.60
2019-02-01T03:15:29.776Z,-2.60
2019-02-01T03:17:59.104Z,-2.50
2019-02-01T03:20:28.436Z,-2.60
2019-02-01T03:22:57.833Z,-2.60
2019-02-01T03:25:27.184Z,-2.70
2019-02-01T03:27:56.552Z,-2.70
2019-02-01T03:30:27.742Z,-2.70
2019-02-01T03:32:57.190Z,-2.70
2019-02-01T03:35:26.576Z,-2.70
2019-02-01T03:37:56.953Z,-2.70
2019-02-01T03:40:26.248Z,-2.70
2019-02-01T03:42:55.558Z,-2.70
2019-02-01T03:45:24.863Z,-2.70
2019-02-01T03:47:54.281Z,-2.80
2019-02-01T03:50:24.198Z,-2.80
2019-02-01T03:52:53.886Z,-2.90
2019-02-01T03:55:25.824Z,-3.00
2019-02-01T03:57:55.124Z,-2.90
2019-02-01T04:00:25.921Z,-2.90
2019-02-01T04:02:55.392Z,-2.90
2019-02-01T04:05:26.113Z,-2.80
2019-02-01T04:07:55.452Z,-2.80
2019-02-01T04:10:26.300Z,-2.80
2019-02-01T04:12:55.629Z,-2.80
2019-02-01T04:15:25.619Z,-2.80
2019-02-01T04:17:54.954Z,-2.90
2019-02-01T04:20:24.660Z,-2.90
2019-02-01T04:22:53.999Z,-2.90
2019-02-01T04:25:23.884Z,-3.00
2019-02-01T04:27:53.223Z,-3.00
2019-02-01T04:30:25.250Z,-3.10
2019-02-01T04:32:55.084Z,-3.10
2019-02-01T04:35:24.420Z,-3.20
2019-02-01T04:37:53.729Z,-3.20
2019-02-01T04:40:24.129Z,-3.20
2019-02-01T04:42:53.499Z,-3.30
2019-02-01T04:45:31.839Z,-3.30
2019-02-01T04:48:01.171Z,-3.40
2019-02-01T04:50:30.465Z,-3.40
2019-02-01T04:52:59.886Z,-3.40
2019-02-01T04:55:29.216Z,-3.50
2019-02-01T04:57:58.514Z,-3.50
2019-02-01T05:00:30.524Z,-3.50
2019-02-01T05:02:59.831Z,-3.50
2019-02-01T05:05:30.257Z,-3.60
2019-02-01T05:07:59.548Z,-3.60
2019-02-01T05:10:28.868Z,-3.60
2019-02-01T05:12:58.291Z,-3.60
2019-02-01T05:15:27.627Z,-3.60
2019-02-01T05:17:57.953Z,-3.60
2019-02-01T05:20:27.292Z,-3.60
2019-02-01T05:22:56.591Z,-3.60
2019-02-01T05:25:27.964Z,-3.60
2019-02-01T05:27:56.930Z,-3.60
2019-02-01T05:30:26.220Z,-3.60
2019-02-01T05:32:55.539Z,-3.70
2019-02-01T05:35:25.869Z,-3.70
2019-02-01T05:37:55.328Z,-3.80
2019-02-01T05:40:24.657Z,-3.90
2019-02-01T05:42:53.947Z,-4.00
2019-02-01T05:45:24.323Z,-3.90
2019-02-01T05:47:54.217Z,-3.90
2019-02-01T05:50:30.026Z,-3.90
2019-02-01T05:52:56.686Z,-3.80
2019-02-01T05:55:26.045Z,-3.80
2019-02-01T05:57:55.419Z,-3.70
2019-02-01T06:00:33.835Z,-3.60
2019-02-01T06:03:03.204Z,-3.60
2019-02-01T06:05:32.542Z,-3.60
2019-02-01T06:08:01.894Z,-3.60
2019-02-01T06:10:31.337Z,-3.60
2019-02-01T06:13:00.731Z,-3.70
2019-02-01T06:15:31.152Z,-3.60
2019-02-01T06:18:00.508Z,-3.60
2019-02-01T06:20:39.859Z,-3.60
2019-02-01T06:23:02.536Z,-3.60
2019-02-01T06:25:32.094Z,-3.60
2019-02-01T06:28:01.473Z,-3.60
2019-02-01T06:30:30.877Z,-3.60
2019-02-01T06:33:00.197Z,-3.60
2019-02-01T06:35:29.986Z,-3.50
2019-02-01T06:37:59.353Z,-3.50
2019-02-01T06:40:31.872Z,-3.50
2019-02-01T06:43:01.207Z,-3.50
2019-02-01T06:45:30.900Z,-3.50
2019-02-01T06:48:00.263Z,-3.50
2019-02-01T06:50:58.436Z,-3.50
2019-02-01T06:53:29.156Z,-3.50
2019-02-01T06:55:58.533Z,-3.50
2019-02-01T06:58:27.840Z,-3.60
2019-02-01T07:01:01.386Z,-3.60
2019-02-01T07:03:49.024Z,-3.60
2019-02-01T07:06:33.696Z,-3.60
2019-02-01T07:09:37.020Z,-3.50
2019-02-01T07:12:24.136Z,-3.40
2019-02-01T07:15:15.636Z,-3.30
2019-02-01T07:18:10.168Z,-3.20
2019-02-01T07:21:03.846Z,-3.20
2019-02-01T07:23:59.740Z,-3.10
2019-02-01T07:26:40.192Z,-3.10
2019-02-01T07:29:28.968Z,-3.00
2019-02-01T07:32:08.526Z,-2.90
2019-02-01T07:34:38.876Z,-3.00
2019-02-01T07:37:08.304Z,-2.90
2019-02-01T07:42:06.897Z,-2.70
2019-02-01T07:44:36.265Z,-2.70
2019-02-01T07:47:05.972Z,-2.70
2019-02-01T07:49:35.255Z,-2.60
2019-02-01T07:52:04.999Z,-2.70
2019-02-01T07:54:34.299Z,-2.70
2019-02-01T07:57:03.641Z,-2.60
2019-02-01T07:59:32.974Z,-2.60
2019-02-01T08:02:03.352Z,-2.60
2019-02-01T08:04:32.648Z,-2.50
2019-02-01T08:07:01.978Z,-2.50
2019-02-01T08:09:31.268Z,-2.40
2019-02-01T08:12:00.610Z,-2.40
2019-02-01T08:14:30.747Z,-2.30
2019-02-01T08:17:00.740Z,-2.20
2019-02-01T08:19:30.093Z,-2.20
2019-02-01T08:21:59.380Z,-2.10
2019-02-01T08:24:28.656Z,-2.00
2019-02-01T08:26:58.003Z,-1.90
2019-02-01T08:29:27.428Z,-1.70
2019-02-01T08:31:56.823Z,-1.60
2019-02-01T08:34:26.217Z,-1.40
2019-02-01T08:36:57.781Z,-1.30
2019-02-01T08:39:26.677Z,-1.20
2019-02-01T08:41:56.064Z,-1.20
2019-02-01T08:44:25.535Z,-1.10
2019-02-01T08:46:55.010Z,-1.00
2019-02-01T08:49:24.386Z,-0.80
2019-02-01T08:51:53.678Z,-0.80
2019-02-01T08:54:23.000Z,-0.80
2019-02-01T08:56:52.324Z,-0.80
2019-02-01T08:59:21.660Z,-0.80
2019-02-01T09:01:50.960Z,-0.70
2019-02-01T09:04:20.284Z,-0.60
2019-02-01T09:06:49.640Z,-0.60
2019-02-01T09:09:18.981Z,-0.50
2019-02-01T09:11:48.312Z,-0.40
2019-02-01T09:14:17.676Z,-0.40
2019-02-01T09:16:47.052Z,-0.40
2019-02-01T09:19:16.356Z,-0.30
2019-02-01T09:21:50.644Z,-0.20
2019-02-01T09:24:16.764Z,-0.10
2019-02-01T09:26:46.056Z,-0.10
2019-02-01T09:29:15.335Z,0.10
2019-02-01T09:31:44.653Z,0.10
2019-02-01T09:34:13.967Z,0.20
2019-02-01T09:36:43.316Z,0.20
2019-02-01T09:39:12.600Z,0.10
2019-02-01T09:41:41.927Z,0.20
2019-02-01T09:44:11.386Z,0.20
2019-02-01T09:46:40.713Z,0.20
2019-02-01T09:49:10.022Z,0.20
2019-02-01T09:51:39.353Z,0.30
2019-02-01T09:54:08.644Z,0.40
2019-02-01T09:56:37.937Z,0.50
2019-02-01T09:59:07.233Z,0.60
2019-02-01T10:01:36.524Z,0.70
2019-02-01T10:04:05.849Z,0.80
2019-02-01T10:06:35.204Z,0.70
2019-02-01T10:09:07.661Z,0.70
2019-02-01T10:11:36.980Z,0.80
2019-02-01T10:14:06.813Z,0.80
2019-02-01T10:16:36.259Z,0.90
2019-02-01T10:19:06.216Z,1.00
2019-02-01T10:21:35.517Z,1.10
2019-02-01T10:24:05.681Z,1.20
2019-02-01T10:26:35.027Z,1.30
2019-02-01T10:29:04.912Z,1.40
2019-02-01T10:31:34.241Z,1.50
2019-02-01T10:34:04.783Z,1.60
2019-02-01T10:36:34.177Z,1.60
2019-02-01T10:39:04.808Z,1.60
2019-02-01T10:41:34.101Z,1.50
2019-02-01T10:44:03.844Z,1.50
2019-02-01T10:46:33.124Z,1.50
2019-02-01T10:49:02.506Z,1.60
2019-02-01T10:51:31.848Z,1.70
2019-02-01T10:54:01.123Z,1.80
2019-02-01T10:56:30.416Z,1.80
2019-02-01T10:58:59.740Z,1.90
2019-02-01T11:01:30.853Z,1.80
2019-02-01T11:04:00.092Z,1.80
2019-02-01T11:06:29.816Z,1.80
2019-02-01T11:08:59.152Z,1.80
2019-02-01T11:11:28.522Z,1.80
2019-02-01T11:13:57.804Z,1.80
2019-02-01T11:16:27.412Z,1.80
2019-02-01T11:18:57.410Z,1.70
2019-02-01T11:21:26.772Z,1.70
2019-02-01T11:23:56.052Z,1.70
2019-02-01T11:26:25.432Z,1.70
2019-02-01T11:28:54.728Z,1.80
2019-02-01T11:31:24.057Z,1.80
2019-02-01T11:33:53.363Z,1.80
2019-02-01T11:36:22.659Z,1.80
2019-02-01T11:38:51.996Z,1.80
2019-02-01T11:41:21.278Z,1.90
2019-02-01T11:43:50.672Z,2.00
2019-02-01T11:46:19.954Z,2.00
2019-02-01T11:48:49.278Z,2.10
2019-02-01T11:51:18.653Z,2.30
2019-02-01T11:53:47.992Z,2.40
2019-02-01T11:56:18.139Z,2.50
2019-02-01T11:58:47.473Z,2.60
2019-02-01T12:01:17.223Z,2.60
2019-02-01T12:03:46.500Z,2.60
2019-02-01T12:06:15.784Z,2.60
2019-02-01T12:08:45.112Z,2.70
2019-02-01T12:11:14.408Z,2.70
2019-02-01T12:13:43.824Z,2.70
2019-02-01T12:16:13.168Z,2.80
2019-02-01T12:18:42.630Z,2.90
2019-02-01T12:21:11.915Z,2.90
2019-02-01T12:23:41.345Z,3.00
2019-02-01T12:26:10.815Z,3.00
2019-02-01T12:28:40.276Z,3.10
2019-02-01T12:31:19.069Z,3.10
2019-02-01T12:33:41.929Z,3.10
2019-02-01T12:36:11.245Z,3.20
2019-02-01T12:38:40.576Z,3.20
2019-02-01T12:41:09.861Z,3.30
2019-02-01T12:43:39.212Z,3.30
2019-02-01T12:46:08.484Z,3.30
2019-02-01T12:48:37.826Z,3.40
2019-02-01T12:51:07.155Z,3.40
2019-02-01T12:53:36.500Z,3.50
2019-02-01T12:56:07.200Z,3.60
2019-02-01T12:58:36.488Z,3.70
2019-02-01T13:01:07.695Z,3.70
2019-02-01T13:03:36.992Z,3.80
2019-02-01T13:06:06.376Z,3.80
2019-02-01T13:08:35.663Z,3.90
2019-02-01T13:11:05.394Z,3.90
2019-02-01T13:13:34.757Z,3.80
2019-02-01T13:16:04.188Z,3.80
2019-02-01T13:18:33.572Z,3.70
2019-02-01T13:21:02.925Z,3.70
2019-02-01T13:23:32.216Z,3.70
2019-02-01T13:26:01.676Z,3.70
2019-02-01T13:28:30.991Z,3.70
2019-02-01T13:31:00.336Z,3.60
2019-02-01T13:33:29.654Z,3.70
2019-02-01T13:36:00.034Z,3.70
2019-02-01T13:38:29.434Z,3.70
2019-02-01T13:40:58.861Z,3.80
2019-02-01T13:43:28.194Z,3.90
2019-02-01T13:46:01.139Z,3.90
2019-02-01T13:48:28.683Z,4.00
2019-02-01T13:50:59.048Z,4.10
2019-02-01T13:53:34.780Z,4.20
2019-02-01T13:55:59.495Z,4.20
2019-02-01T13:58:28.828Z,4.10
2019-02-01T14:00:58.258Z,4.00
2019-02-01T14:03:27.653Z,4.00
2019-02-01T14:05:57.042Z,3.90
2019-02-01T14:08:27.532Z,3.70
2019-02-01T14:10:56.973Z,3.70
2019-02-01T14:13:26.357Z,3.80
2019-02-01T14:15:55.788Z,3.80
2019-02-01T14:18:26.335Z,3.80
2019-02-01T14:20:56.204Z,4.00
2019-02-01T14:23:46.155Z,4.10
2019-02-01T14:26:09.381Z,4.40
2019-02-01T14:28:39.152Z,4.80
2019-02-01T14:31:09.125Z,5.10
2019-02-01T14:33:38.438Z,5.30
2019-02-01T14:36:08.507Z,5.40
2019-02-01T14:38:38.040Z,5.50
2019-02-01T14:41:07.922Z,5.60
2019-02-01T14:43:37.288Z,5.60
2019-02-01T14:46:12.875Z,5.60
2019-02-01T14:48:41.017Z,5.60
2019-02-01T14:51:10.612Z,5.60
2019-02-01T14:53:39.912Z,5.50
2019-02-01T14:56:09.388Z,5.50
2019-02-01T14:58:39.753Z,5.50
2019-02-01T15:01:09.131Z,5.40
2019-02-01T15:03:38.564Z,5.40
2019-02-01T15:06:07.888Z,5.30
2019-02-01T15:08:38.169Z,5.30
2019-02-01T15:11:07.543Z,5.70
2019-02-01T15:13:36.882Z,6.20
2019-02-01T15:16:06.751Z,6.50
2019-02-01T15:18:36.254Z,6.60
2019-02-01T15:21:06.632Z,6.50
2019-02-01T15:23:35.943Z,6.10
2019-02-01T15:26:05.775Z,5.70
2019-02-01T15:28:35.136Z,5.50
2019-02-01T15:31:05.106Z,5.20
2019-02-01T15:33:35.003Z,5.00
2019-02-01T15:36:05.742Z,4.90
2019-02-01T15:38:35.100Z,4.80
2019-02-01T15:41:04.916Z,4.70
2019-02-01T15:43:34.298Z,4.70
2019-02-01T15:46:04.444Z,4.60
2019-02-01T15:48:33.892Z,4.60
2019-02-01T15:51:03.470Z,4.60
2019-02-01T15:53:33.247Z,4.60
2019-02-01T15:56:02.584Z,4.60
2019-02-01T15:58:31.945Z,4.50
2019-02-01T16:01:01.260Z,4.50
2019-02-01T16:03:30.580Z,4.50
2019-02-01T16:05:59.918Z,4.50
2019-02-01T16:08:29.328Z,4.60
2019-02-01T16:10:58.634Z,4.60
2019-02-01T16:13:27.953Z,4.50
2019-02-01T16:15:57.684Z,4.60
2019-02-01T16:18:27.038Z,4.60
2019-02-01T16:20:56.321Z,4.60
2019-02-01T16:23:25.623Z,4.60
2019-02-01T16:25:54.908Z,4.70
2019-02-01T16:28:24.380Z,4.70
2019-02-01T16:30:53.742Z,4.70
2019-02-01T16:33:23.161Z,4.70
2019-02-01T16:35:52.500Z,4.90
2019-02-01T16:38:22.104Z,4.90
2019-02-01T16:40:51.587Z,4.90
2019-02-01T16:43:21.531Z,4.80
2019-02-01T16:45:50.876Z,4.80
2019-02-01T16:48:20.243Z,4.80
2019-02-01T16:50:49.745Z,4.80
2019-02-01T16:53:19.287Z,4.80
2019-02-01T16:55:48.711Z,4.80
2019-02-01T16:58:18.481Z,4.80
2019-02-01T17:00:47.836Z,4.90
2019-02-01T17:03:17.260Z,5.00
2019-02-01T17:05:46.717Z,5.00
2019-02-01T17:08:16.109Z,4.90
2019-02-01T17:10:45.938Z,5.00
2019-02-01T17:13:15.568Z,5.00
2019-02-01T17:15:44.862Z,5.00
2019-02-01T17:18:14.185Z,5.10
2019-02-01T17:20:43.509Z,5.10
2019-02-01T17:23:12.872Z,5.10
2019-02-01T17:25:42.260Z,5.20
2019-02-01T17:28:12.113Z,5.30
2019-02-01T17:30:43.880Z,5.30
2019-02-01T17:33:13.206Z,5.30
2019-02-01T17:35:42.589Z,5.40
2019-02-01T17:38:11.928Z,5.40
2019-02-01T17:40:43.299Z,5.30
2019-02-01T17:43:12.640Z,5.40
2019-02-01T17:45:41.973Z,6.00
2019-02-01T17:48:11.319Z,5.50
2019-02-01T17:50:40.676Z,5.40
2019-02-01T17:53:09.961Z,5.50
2019-02-01T17:55:39.371Z,5.40
2019-02-01T17:58:08.773Z,5.50
2019-02-01T18:00:47.093Z,5.50
2019-02-01T18:03:16.965Z,5.50
2019-02-01T18:05:46.259Z,5.40
2019-02-01T18:08:15.635Z,5.50
2019-02-01T18:10:44.984Z,5.50
2019-02-01T18:13:14.300Z,5.50
2019-02-01T18:15:43.977Z,5.50
2019-02-01T18:18:13.270Z,5.40
2019-02-01T18:20:42.588Z,5.40
2019-02-01T18:23:12.945Z,5.50
2019-02-01T18:25:43.277Z,5.50
2019-02-01T18:28:12.714Z,5.50
2019-02-01T18:30:42.082Z,5.50
2019-02-01T18:33:11.608Z,5.50
2019-02-01T18:35:40.960Z,5.50
2019-02-01T18:38:19.683Z,5.50
2019-02-01T18:40:41.362Z,5.60
2019-02-01T18:43:10.736Z,5.60
2019-02-01T18:45:40.136Z,5.60
2019-02-01T18:48:09.420Z,5.60
2019-02-01T18:50:38.812Z,5.60
2019-02-01T18:53:08.099Z,5.60
2019-02-01T18:55:37.543Z,5.60
2019-02-01T18:58:07.236Z,5.50
2019-02-01T19:00:36.704Z,5.60
2019-02-01T19:03:06.657Z,5.50
2019-02-01T19:05:37.125Z,5.50
2019-02-01T19:08:07.007Z,5.60
2019-02-01T19:10:36.399Z,5.60
2019-02-01T19:13:06.318Z,5.50
2019-02-01T19:15:36.143Z,5.50
2019-02-01T19:18:06.521Z,5.50
2019-02-01T19:20:35.863Z,5.50
2019-02-01T19:23:05.552Z,5.50
2019-02-01T19:25:44.842Z,5.50
2019-02-01T19:28:05.883Z,5.50
2019-02-01T19:30:37.801Z,5.50
2019-02-01T19:33:07.511Z,5.50
2019-02-01T19:35:37.951Z,5.50
2019-02-01T19:38:08.591Z,5.60
2019-02-01T19:40:37.951Z,5.50
2019-02-01T19:43:07.514Z,5.50
2019-02-01T19:45:36.952Z,5.60
2019-02-01T19:48:07.071Z,5.70
2019-02-01T19:50:36.509Z,5.60
2019-02-01T19:53:07.013Z,5.60
2019-02-01T19:55:37.246Z,5.70
2019-02-01T19:58:07.352Z,5.70
2019-02-01T20:00:37.196Z,5.70
2019-02-01T20:03:07.043Z,5.70
2019-02-01T20:05:36.877Z,5.70
2019-02-01T20:08:06.762Z,5.80
2019-02-01T20:10:36.172Z,5.80
2019-02-01T20:13:06.013Z,5.70
2019-02-01T20:15:35.456Z,5.80
2019-02-01T20:18:05.446Z,5.80
2019-02-01T20:20:36.008Z,5.80
2019-02-01T20:23:05.776Z,5.80
2019-02-01T20:25:35.230Z,5.90
2019-02-01T20:28:04.696Z,6.00
2019-02-01T20:30:36.100Z,6.00
2019-02-01T20:33:05.888Z,6.00
2019-02-01T20:35:35.330Z,6.00
2019-02-01T20:38:05.238Z,6.00
2019-02-01T20:40:36.925Z,6.00
2019-02-01T20:43:06.879Z,6.00
2019-02-01T20:45:36.488Z,6.00
2019-02-01T20:48:07.605Z,5.90
2019-02-01T20:50:37.147Z,5.90
2019-02-01T20:53:07.371Z,5.90
2019-02-01T20:55:36.809Z,5.90
2019-02-01T20:58:07.972Z,5.80
2019-02-01T21:00:37.441Z,5.80
2019-02-01T21:03:07.536Z,5.80
2019-02-01T21:05:37.135Z,5.80
2019-02-01T21:08:06.870Z,5.90
2019-02-01T21:10:36.369Z,5.90
2019-02-01T21:13:14.375Z,5.80
2019-02-01T21:15:39.746Z,5.80
2019-02-01T21:18:09.303Z,5.90
2019-02-01T21:20:39.722Z,5.90
2019-02-01T21:23:09.267Z,6.00
2019-02-01T21:25:38.688Z,5.90
2019-02-01T21:28:08.600Z,5.90
2019-02-01T21:30:38.849Z,6.00
2019-02-01T21:33:08.578Z,6.00
2019-02-01T21:35:37.884Z,6.00
2019-02-01T21:38:07.690Z,6.10
2019-02-01T21:40:37.413Z,6.00
2019-02-01T21:43:07.295Z,6.00
2019-02-01T21:45:37.180Z,6.00
2019-02-01T21:48:08.527Z,6.00
2019-02-01T21:50:37.944Z,6.00
2019-02-01T21:53:07.442Z,6.10
2019-02-01T21:55:36.778Z,6.10
2019-02-01T21:58:06.146Z,6.10
2019-02-01T22:00:35.879Z,6.20
2019-02-01T22:03:07.178Z,6.20
2019-02-01T22:05:36.664Z,6.10
2019-02-01T22:08:07.173Z,6.10
2019-02-01T22:10:36.633Z,6.10
2019-02-01T22:13:06.299Z,6.20
2019-02-01T22:15:35.630Z,6.10
2019-02-01T22:18:05.770Z,6.20
2019-02-01T22:20:35.095Z,6.10
2019-02-01T22:23:04.788Z,6.20
2019-02-01T22:25:34.157Z,6.20
2019-02-01T22:28:03.440Z,6.30
2019-02-01T22:30:36.859Z,6.30
2019-02-01T22:33:07.086Z,6.40
2019-02-01T22:35:36.872Z,6.40
2019-02-01T22:38:08.359Z,6.40
2019-02-01T22:40:37.677Z,6.40
2019-02-01T22:43:07.045Z,6.40
2019-02-01T22:45:36.413Z,6.40
2019-02-01T22:48:07.501Z,6.40
2019-02-01T22:50:37.176Z,6.50
2019-02-01T22:53:07.247Z,6.50
2019-02-01T22:55:36.529Z,6.50
2019-02-01T22:58:05.803Z,6.50
2019-02-01T23:01:20.476Z,6.50
2019-02-01T23:03:59.968Z,6.50
2019-02-01T23:06:29.249Z,6.50
2019-02-01T23:08:58.569Z,6.60
2019-02-01T23:11:27.889Z,6.60
2019-02-01T23:13:57.236Z,6.60
2019-02-01T23:16:26.520Z,6.60
2019-02-01T23:18:55.796Z,6.60
2019-02-01T23:21:25.128Z,6.70
2019-02-01T23:23:54.824Z,6.70
2019-02-01T23:26:24.151Z,6.70
2019-02-01T23:28:53.474Z,6.70
2019-02-01T23:31:22.791Z,6.80
2019-02-01T23:33:52.088Z,6.80
2019-02-01T23:36:21.412Z,6.90
2019-02-01T23:38:51.096Z,6.90
2019-02-01T23:41:20.421Z,7.00
2019-02-01T23:43:49.746Z,7.00
2019-02-01T23:46:19.064Z,7.10
2019-02-01T23:48:48.996Z,7.10
2019-02-01T23:51:18.300Z,7.20
2019-02-01T23:53:47.591Z,7.30
2019-02-01T23:56:16.879Z,7.40
2019-02-01T23:58:46.224Z,7.40
